Terminal Aerodrome Forecast
Issued by NWS Medford, OR

Home | Current Version | Previous Version | Text Only | Print | Product List | Glossary On
Versions: 1 2 3 4 5 6 7 8 9 10 11 12 13 14 15 16 17 18 19
000
FTUS46 KMFR 011741
TAFMFR
TAF
KMFR 011741Z 0118/0218 VRB03KT 5SM BR FEW003 OVC009
     FM012000 VRB03KT P6SM SCT012 SCT250
     FM021100 00000KT 5SM BR SCT002=

USA.gov is the U.S. government's official web portal to all federal, state and local government web resources and services.